Time;durP1;ratioP1;P1;durP2;ratioP2;P2;SDS_P1;SDS_P2;PMS_P1;PMS_P2;Temp;Humidity;BMP_temperature;BMP_pressure;BME280_temperature;BME280_humidity;BME280_pressure;Samples;Min_cycle;Max_cycle;Signal;HPM_P1;HPM_P2
2023/09/20 00:00:27;;;;;;;29.30;14.23;;;;;;;19.61;52.71;100503.80;1686853;84;22019;-78
2023/09/20 00:03:34;;;;;;;24.82;13.98;;;;;;;19.66;52.47;100502.02;1704426;82;22153;-78
2023/09/20 00:06:41;;;;;;;25.32;14.47;;;;;;;19.60;52.56;100500.73;1718006;83;21384;-78
2023/09/20 00:09:47;;;;;;;20.90;13.93;;;;;;;19.57;52.33;100495.08;1721668;83;21381;-78
2023/09/20 00:12:53;;;;;;;23.57;14.65;;;;;;;19.73;51.76;100496.41;1720727;83;21389;-78
2023/09/20 00:16:00;;;;;;;24.27;13.15;;;;;;;19.68;51.53;100502.36;1717299;83;21334;-79
2023/09/20 00:19:06;;;;;;;19.45;13.85;;;;;;;19.69;51.20;100499.34;1709118;83;21653;-78
2023/09/20 00:22:14;;;;;;;21.45;12.35;;;;;;;19.93;50.50;100500.31;1718754;83;21383;-78
2023/09/20 00:25:20;;;;;;;20.50;13.68;;;;;;;19.94;50.08;100499.23;1715062;83;21272;-78
2023/09/20 00:28:26;;;;;;;20.08;13.15;;;;;;;20.07;49.91;100492.13;1719373;83;21370;-78
2023/09/20 00:31:32;;;;;;;22.87;14.30;;;;;;;19.88;50.30;100497.40;1719607;83;21357;-78
2023/09/20 00:34:38;;;;;;;31.62;15.50;;;;;;;19.98;50.74;100494.07;1718701;83;21703;-78
2023/09/20 00:37:52;;;;;;;25.15;15.70;;;;;;;19.43;52.47;100502.37;1717103;83;21354;-78
2023/09/20 00:40:56;;;;;;;28.30;15.08;;;;;;;19.71;52.37;100501.87;1719283;83;21854;-78
2023/09/20 00:44:02;;;;;;;25.90;14.78;;;;;;;19.60;53.18;100502.11;1717946;83;21404;-78
2023/09/20 00:47:08;;;;;;;27.15;15.05;;;;;;;19.74;53.15;100502.27;1716848;83;21356;-79
2023/09/20 00:50:17;;;;;;;28.95;15.68;;;;;;;19.76;53.50;100502.90;1715564;83;21412;-78
2023/09/20 00:53:23;;;;;;;22.25;14.33;;;;;;;19.78;53.76;100503.50;1718835;83;21361;-78
2023/09/20 00:56:29;;;;;;;29.42;15.60;;;;;;;19.78;54.03;100508.20;1707585;83;22004;-78
2023/09/20 00:59:35;;;;;;;24.77;15.10;;;;;;;19.87;53.67;100504.03;1687385;84;21378;-77
2023/09/20 01:02:42;;;;;;;29.42;16.50;;;;;;;19.79;54.01;100503.80;1691214;84;21350;-78
2023/09/20 01:05:48;;;;;;;27.87;14.33;;;;;;;19.76;54.15;100505.67;1689301;84;21353;-78
2023/09/20 01:08:54;;;;;;;26.02;15.65;;;;;;;19.70;54.22;100502.41;1682844;84;21362;-78
2023/09/20 01:12:00;;;;;;;28.80;15.40;;;;;;;19.70;54.33;100512.13;1691449;83;21640;-78
2023/09/20 01:15:07;;;;;;;20.82;14.63;;;;;;;19.76;54.60;100514.51;1686878;84;21639;-78
2023/09/20 01:18:13;;;;;;;28.12;16.50;;;;;;;19.77;54.43;100515.69;1678296;83;21431;-78
2023/09/20 01:21:20;;;;;;;28.60;15.25;;;;;;;19.79;54.12;100515.45;1690000;84;21362;-78
2023/09/20 01:24:25;;;;;;;26.40;14.90;;;;;;;19.78;53.94;100510.98;1657334;85;21390;-78
2023/09/20 01:27:32;;;;;;;24.12;15.32;;;;;;;19.79;53.90;100509.89;1690039;84;21333;-78
2023/09/20 01:30:42;;;;;;;21.40;14.13;;;;;;;19.97;53.23;100509.88;1688246;83;21366;-78
2023/09/20 01:33:48;;;;;;;29.12;13.70;;;;;;;19.90;53.36;100506.33;1684119;82;21387;-78
2023/09/20 01:36:54;;;;;;;23.87;14.40;;;;;;;20.09;52.79;100511.31;1691762;84;21380;-78
2023/09/20 01:40:00;;;;;;;31.93;14.53;;;;;;;20.15;52.55;100517.34;1688401;83;22047;-78
2023/09/20 01:43:08;;;;;;;26.80;15.20;;;;;;;20.06;52.69;100515.97;1689047;84;21353;-78
2023/09/20 01:46:14;;;;;;;26.17;14.58;;;;;;;19.58;53.99;100521.74;1688850;84;21365;-78
2023/09/20 01:49:21;;;;;;;31.10;14.50;;;;;;;19.70;53.98;100521.00;1690402;84;21347;-78
2023/09/20 01:52:27;;;;;;;22.42;14.43;;;;;;;19.62;54.24;100516.08;1687520;84;21334;-78
2023/09/20 01:55:37;;;;;;;22.70;13.48;;;;;;;19.53;54.74;100517.97;1691714;83;21939;-78
2023/09/20 01:58:44;;;;;;;28.02;13.88;;;;;;;19.45;54.77;100526.04;1688884;84;21362;-79
2023/09/20 02:01:50;;;;;;;18.80;13.75;;;;;;;19.35;54.97;100523.80;1684888;84;21442;-79
2023/09/20 02:04:57;;;;;;;19.52;13.62;;;;;;;19.36;54.75;100531.03;1689209;84;21346;-79
2023/09/20 02:08:03;;;;;;;26.75;14.20;;;;;;;19.31;54.35;100530.03;1681995;83;21378;-79
2023/09/20 02:11:11;;;;;;;19.12;12.45;;;;;;;19.55;53.22;100531.91;1686241;84;22543;-79
2023/09/20 02:14:17;;;;;;;19.23;13.22;;;;;;;19.48;52.70;100532.53;1687670;84;21356;-79
2023/09/20 02:17:26;;;;;;;18.87;12.43;;;;;;;19.50;51.98;100537.30;1689917;84;21346;-79
2023/09/20 02:20:37;;;;;;;25.60;13.45;;;;;;;19.22;52.24;100532.23;1685686;84;21878;-79
2023/09/20 02:23:40;;;;;;;17.42;12.85;;;;;;;19.23;51.76;100534.47;1691410;84;21951;-79
2023/09/20 02:26:48;;;;;;;18.40;12.30;;;;;;;19.26;51.45;100532.09;1689387;82;21322;-79
2023/09/20 02:29:53;;;;;;;18.55;11.83;;;;;;;19.22;50.99;100532.78;1686418;84;21937;-79
2023/09/20 02:33:08;;;;;;;17.95;11.45;;;;;;;19.05;51.10;100529.17;1686991;83;21346;-79
2023/09/20 02:36:11;;;;;;;17.70;11.00;;;;;;;19.25;50.42;100533.72;1690126;84;21354;-78
2023/09/20 02:39:18;;;;;;;21.50;12.18;;;;;;;19.18;50.29;100536.54;1689887;84;21385;-78
2023/09/20 02:42:26;;;;;;;18.85;12.43;;;;;;;19.21;49.85;100538.02;1689748;84;21220;-78
2023/09/20 02:45:33;;;;;;;16.87;11.05;;;;;;;19.26;49.42;100527.09;1692625;83;21365;-78
2023/09/20 02:48:41;;;;;;;17.90;11.48;;;;;;;19.11;49.32;100532.99;1688581;83;21491;-77
2023/09/20 02:51:47;;;;;;;15.83;11.78;;;;;;;19.14;48.97;100533.91;1687326;84;21790;-78
2023/09/20 02:54:53;;;;;;;13.83;10.43;;;;;;;19.11;48.84;100537.15;1686893;84;22579;-78
2023/09/20 02:57:59;;;;;;;22.70;11.38;;;;;;;18.93;49.08;100532.39;1684998;84;21369;-78
2023/09/20 03:01:08;;;;;;;15.70;10.32;;;;;;;18.85;49.15;100538.20;1683177;84;21548;-77
2023/09/20 03:04:13;;;;;;;15.90;11.10;;;;;;;18.94;48.87;100538.23;1689382;84;21963;-78
2023/09/20 03:07:19;;;;;;;19.45;11.55;;;;;;;18.93;48.79;100535.70;1689156;84;21366;-78
2023/09/20 03:10:28;;;;;;;18.07;11.97;;;;;;;19.46;47.80;100538.83;1686258;84;21372;-78
2023/09/20 03:13:34;;;;;;;26.30;12.63;;;;;;;19.41;47.70;100538.66;1690555;84;23028;-78
2023/09/20 03:16:43;;;;;;;17.27;12.20;;;;;;;19.46;47.64;100537.44;1670013;84;21907;-77
2023/09/20 03:19:49;;;;;;;18.27;12.73;;;;;;;19.58;47.47;100545.33;1690588;84;22043;-78
2023/09/20 03:22:56;;;;;;;21.93;13.10;;;;;;;19.52;47.45;100546.22;1692298;84;21349;-78
2023/09/20 03:26:04;;;;;;;23.73;13.30;;;;;;;19.68;47.15;100546.75;1645824;86;21402;-78
2023/09/20 03:29:10;;;;;;;22.55;14.20;;;;;;;19.85;46.69;100553.36;1687865;84;21361;-78
2023/09/20 03:32:17;;;;;;;23.12;12.73;;;;;;;19.89;46.53;100555.98;1687587;83;21366;-78
2023/09/20 03:35:22;;;;;;;26.20;12.63;;;;;;;20.11;46.02;100560.53;1688008;84;21964;-78
2023/09/20 03:38:29;;;;;;;22.60;13.83;;;;;;;19.57;46.96;100561.67;1690158;84;21347;-78
2023/09/20 03:41:38;;;;;;;20.75;12.53;;;;;;;19.77;46.65;100555.93;1684598;83;21365;-78
2023/09/20 03:44:45;;;;;;;26.70;14.45;;;;;;;19.83;46.54;100552.77;1688606;83;21397;-79
2023/09/20 03:47:57;;;;;;;25.17;15.13;;;;;;;20.05;46.10;100559.55;1695581;82;21908;-78
2023/09/20 03:51:01;;;;;;;30.45;12.93;;;;;;;20.20;45.79;100563.85;1719090;83;21876;-78
2023/09/20 03:54:08;;;;;;;21.20;14.03;;;;;;;20.08;45.90;100565.16;1718698;83;21358;-78
2023/09/20 03:57:15;;;;;;;23.18;14.10;;;;;;;20.07;46.06;100567.09;1719396;83;21774;-78
2023/09/20 04:00:28;;;;;;;20.40;13.53;;;;;;;19.99;46.43;100566.01;1718258;83;21385;-77
2023/09/20 04:03:34;;;;;;;19.05;12.70;;;;;;;20.14;46.13;100562.31;1719250;83;21389;-78
2023/09/20 04:06:42;;;;;;;26.68;13.95;;;;;;;20.21;45.96;100559.44;1714635;83;21412;-78
2023/09/20 04:09:48;;;;;;;21.85;13.60;;;;;;;20.21;45.85;100561.38;1715073;83;21974;-79
2023/09/20 04:12:55;;;;;;;18.92;13.25;;;;;;;20.34;45.75;100560.66;1713411;83;21345;-78
2023/09/20 04:16:06;;;;;;;19.20;12.98;;;;;;;20.38;45.67;100566.05;1711722;83;21342;-78
2023/09/20 04:19:09;;;;;;;21.17;12.40;;;;;;;20.35;45.60;100563.73;1697290;82;21999;-78
2023/09/20 04:22:15;;;;;;;20.75;13.10;;;;;;;20.46;45.49;100569.03;1674037;84;21342;-78
2023/09/20 04:25:21;;;;;;;32.58;13.35;;;;;;;20.53;45.39;100562.88;1689125;84;21378;-79
2023/09/20 04:28:26;;;;;;;19.45;12.58;;;;;;;20.74;45.04;100562.03;1690970;84;21353;-78
2023/09/20 04:31:33;;;;;;;17.65;12.90;;;;;;;20.85;44.73;100562.63;1690254;84;21956;-78
2023/09/20 04:34:39;;;;;;;18.60;12.45;;;;;;;20.94;44.71;100561.20;1687189;84;21358;-79
2023/09/20 04:37:47;;;;;;;21.65;13.30;;;;;;;21.16;44.11;100565.63;1682896;83;21390;-78
2023/09/20 04:40:56;;;;;;;24.15;12.80;;;;;;;21.44;43.52;100567.75;1688536;84;21912;-78
2023/09/20 04:44:03;;;;;;;17.45;12.00;;;;;;;21.67;42.91;100566.89;1683975;84;21354;-78
2023/09/20 04:47:14;;;;;;;20.05;12.43;;;;;;;21.93;42.51;100566.94;1686422;83;21374;-79
2023/09/20 04:50:18;;;;;;;20.92;11.78;;;;;;;22.14;41.83;100559.88;1689265;84;21342;-78
2023/09/20 04:53:25;;;;;;;19.32;11.55;;;;;;;22.18;41.67;100569.44;1680974;84;22741;-79
2023/09/20 04:56:33;;;;;;;20.90;11.65;;;;;;;22.48;41.00;100562.79;1686253;84;21353;-78
2023/09/20 04:59:40;;;;;;;20.02;10.93;;;;;;;22.66;40.69;100562.59;1670805;84;22814;-78
2023/09/20 05:02:47;;;;;;;18.15;12.33;;;;;;;22.96;40.36;100563.75;1689344;82;21318;-78
2023/09/20 05:05:53;;;;;;;22.93;12.25;;;;;;;23.18;39.89;100566.61;1689344;83;21330;-79
2023/09/20 05:08:59;;;;;;;22.50;13.83;;;;;;;23.40;39.39;100561.12;1661420;85;21245;-78
2023/09/20 05:12:05;;;;;;;25.90;13.48;;;;;;;23.47;39.25;100561.77;1689061;83;22000;-79
2023/09/20 05:15:23;;;;;;;20.57;12.63;;;;;;;23.36;39.51;100566.91;1688271;84;21621;-80
2023/09/20 05:18:30;;;;;;;21.15;11.83;;;;;;;23.50;39.54;100562.67;1692379;82;21930;-79
2023/09/20 05:21:41;;;;;;;24.43;13.60;;;;;;;23.65;39.28;100571.30;1665686;86;21353;-79
2023/09/20 05:24:50;;;;;;;27.22;13.98;;;;;;;23.84;38.67;100564.88;1668683;83;22652;-80
2023/09/20 05:27:55;;;;;;;30.52;13.88;;;;;;;23.86;38.85;100570.22;1682890;82;21350;-80
2023/09/20 05:31:03;;;;;;;23.85;13.58;;;;;;;23.90;38.44;100577.83;1718371;82;21331;-79
2023/09/20 05:34:12;;;;;;;26.77;14.23;;;;;;;23.88;38.52;100574.98;1686164;82;21440;-79
2023/09/20 05:37:20;;;;;;;28.67;14.95;;;;;;;23.84;38.36;100573.80;1672223;84;21266;-80
2023/09/20 05:40:28;;;;;;;31.17;14.95;;;;;;;24.03;37.98;100580.77;1684065;82;21322;-80
2023/09/20 05:43:39;;;;;;;26.85;13.85;;;;;;;24.20;37.64;100578.77;1691098;83;21330;-78
2023/09/20 05:46:41;;;;;;;42.33;18.35;;;;;;;24.14;37.95;100576.19;1692432;82;21760;-78
2023/09/20 05:49:49;;;;;;;41.00;19.77;;;;;;;24.39;37.50;100579.31;1678693;83;21367;-79
2023/09/20 05:52:59;;;;;;;32.10;17.65;;;;;;;24.48;37.34;100583.34;1709983;82;22061;-79
2023/09/20 05:56:12;;;;;;;38.63;20.77;;;;;;;24.47;37.25;100581.66;1681831;82;21238;-79
2023/09/20 05:59:19;;;;;;;46.85;21.95;;;;;;;24.73;36.83;100568.78;1680140;83;22089;-79
2023/09/20 06:02:25;;;;;;;38.23;18.02;;;;;;;24.77;36.44;100576.10;1691200;83;21357;-79
2023/09/20 06:05:33;;;;;;;39.27;17.55;;;;;;;24.85;36.54;100570.04;1684480;82;21416;-80
2023/09/20 06:08:39;;;;;;;33.75;16.17;;;;;;;24.91;36.57;100574.56;1693292;82;21360;-80
2023/09/20 06:11:45;;;;;;;33.60;17.40;;;;;;;25.12;36.52;100580.38;1684940;82;21694;-79
2023/09/20 06:14:51;;;;;;;40.50;16.35;;;;;;;25.26;35.96;100582.17;1677558;83;21336;-80
2023/09/20 06:17:57;;;;;;;33.78;14.45;;;;;;;25.32;36.20;100586.73;1691760;82;21322;-79
2023/09/20 06:21:08;;;;;;;27.17;14.10;;;;;;;25.57;35.38;100584.11;1689662;83;22059;-80
2023/09/20 06:24:24;;;;;;;28.55;12.95;;;;;;;25.61;35.39;100590.03;1666632;84;21243;-80
2023/09/20 06:27:31;;;;;;;34.55;13.15;;;;;;;25.78;35.26;100585.67;1679194;82;21660;-81
2023/09/20 06:30:37;;;;;;;26.68;11.90;;;;;;;25.99;34.76;100587.49;1670386;83;21376;-80
2023/09/20 06:33:43;;;;;;;24.27;11.50;;;;;;;26.10;34.55;100580.81;1692127;82;21258;-80
2023/09/20 06:36:51;;;;;;;21.90;10.98;;;;;;;26.27;34.41;100582.59;1688121;82;21270;-79
2023/09/20 06:39:56;;;;;;;26.93;11.88;;;;;;;26.34;34.19;100580.36;1681935;82;22479;-79
2023/09/20 06:43:03;;;;;;;26.10;11.43;;;;;;;26.33;33.96;100586.52;1623701;85;21276;-80
2023/09/20 06:46:10;;;;;;;23.67;11.22;;;;;;;26.49;34.33;100586.08;1621494;86;22710;-79
2023/09/20 06:49:15;;;;;;;30.82;12.33;;;;;;;26.68;33.99;100589.22;1616590;87;21232;-79
2023/09/20 06:52:22;;;;;;;36.50;12.28;;;;;;;26.81;33.44;100593.44;1625651;86;21242;-78
2023/09/20 06:55:29;;;;;;;31.77;10.10;;;;;;;26.91;33.26;100590.64;1685010;83;21231;-78
2023/09/20 06:58:36;;;;;;;20.97;10.65;;;;;;;26.89;33.65;100594.30;1682323;83;21915;-79
2023/09/20 07:01:43;;;;;;;37.93;11.43;;;;;;;26.94;33.31;100602.16;1693243;82;21289;-78
2023/09/20 07:04:48;;;;;;;31.70;12.25;;;;;;;27.10;33.06;100591.85;1686285;82;21932;-79
2023/09/20 07:07:55;;;;;;;25.95;11.40;;;;;;;27.31;32.19;100594.66;1675705;82;22519;-79
2023/09/20 07:11:00;;;;;;;23.07;11.00;;;;;;;27.36;32.45;100594.66;1683636;84;22549;-78
2023/09/20 07:14:06;;;;;;;22.70;10.72;;;;;;;27.54;31.77;100601.67;1685246;83;21350;-78
2023/09/20 07:17:14;;;;;;;25.88;9.15;;;;;;;27.86;31.46;100600.82;1690452;82;21255;-79
2023/09/20 07:20:20;;;;;;;29.42;10.28;;;;;;;27.93;31.53;100596.30;1687810;83;21906;-79
2023/09/20 07:23:30;;;;;;;19.90;9.43;;;;;;;28.23;31.58;100603.25;1680455;83;21952;-79
2023/09/20 07:26:38;;;;;;;21.87;8.93;;;;;;;28.31;30.58;100614.45;1677372;83;22097;-79
2023/09/20 07:29:46;;;;;;;19.40;10.03;;;;;;;28.47;30.02;100605.44;1688328;82;21258;-79
2023/09/20 07:32:55;;;;;;;23.77;9.23;;;;;;;28.33;30.52;100602.94;1689560;83;21364;-79
2023/09/20 07:36:05;;;;;;;15.88;7.45;;;;;;;28.46;30.06;100605.12;1643400;84;21350;-79
2023/09/20 07:39:13;;;;;;;25.37;8.30;;;;;;;28.60;29.86;100610.41;1679370;83;21345;-80
2023/09/20 07:42:20;;;;;;;26.60;7.47;;;;;;;28.72;29.45;100601.06;1675191;83;21301;-78
2023/09/20 07:45:27;;;;;;;14.55;6.75;;;;;;;28.75;29.30;100599.66;1679198;83;21426;-78
2023/09/20 07:48:33;;;;;;;15.32;7.75;;;;;;;28.81;29.86;100599.06;1688043;83;21370;-80
2023/09/20 07:51:40;;;;;;;18.90;7.25;;;;;;;29.13;28.41;100600.84;1688747;82;21258;-79
2023/09/20 07:54:47;;;;;;;20.80;8.53;;;;;;;29.11;28.07;100597.45;1690353;83;21628;-80
2023/09/20 07:57:58;;;;;;;8.40;5.15;;;;;;;29.16;27.71;100597.42;1682712;82;21231;-79
2023/09/20 08:01:12;;;;;;;27.30;6.00;;;;;;;29.35;27.43;100583.46;1687472;82;21385;-79
2023/09/20 08:04:17;;;;;;;14.28;5.05;;;;;;;29.59;26.95;100587.78;1686413;83;21365;-79
2023/09/20 08:07:21;;;;;;;24.45;6.53;;;;;;;29.79;27.16;100584.78;1682931;82;21794;-79
2023/09/20 08:10:27;;;;;;;10.13;5.65;;;;;;;30.09;27.32;100584.73;1670410;83;21308;-79
2023/09/20 08:13:33;;;;;;;15.20;4.90;;;;;;;30.20;26.71;100584.33;1683221;82;21327;-80
2023/09/20 08:16:42;;;;;;;8.85;4.47;;;;;;;30.17;26.13;100577.06;1688958;82;21372;-79
2023/09/20 08:19:49;;;;;;;9.00;4.37;;;;;;;30.16;25.43;100580.45;1677868;83;21192;-79
2023/09/20 09:00:29;;;;;;;13.98;7.58;;;;;;;30.63;24.74;100558.95;1688627;82;21223;-80
2023/09/20 09:03:37;;;;;;;11.12;4.22;;;;;;;30.83;25.09;100548.53;1687432;82;21230;-79
2023/09/20 09:06:43;;;;;;;6.00;3.10;;;;;;;30.79;24.86;100549.13;1689068;82;21243;-79
2023/09/20 09:09:49;;;;;;;7.53;3.47;;;;;;;30.72;23.88;100555.72;1654399;84;21350;-80
2023/09/20 09:12:55;;;;;;;7.15;3.67;;;;;;;30.70;24.26;100543.03;1650509;84;21362;-79
2023/09/20 09:16:01;;;;;;;9.88;4.05;;;;;;;30.74;24.36;100553.45;1678757;82;21346;-79
2023/09/20 09:19:09;;;;;;;9.08;3.80;;;;;;;30.89;24.78;100552.95;1688256;82;21210;-80
2023/09/20 09:22:15;;;;;;;16.52;3.47;;;;;;;30.96;24.62;100547.73;1679331;82;21343;-79
2023/09/20 09:25:30;;;;;;;8.68;3.30;;;;;;;31.04;24.89;100553.53;1681910;82;21261;-80
2023/09/20 09:28:38;;;;;;;8.40;3.60;;;;;;;31.07;24.26;100548.43;1650313;84;21408;-78
2023/09/20 09:31:44;;;;;;;8.05;4.00;;;;;;;31.11;24.66;100541.02;1649071;84;21306;-78
2023/09/20 09:34:52;;;;;;;6.35;2.92;;;;;;;31.16;24.77;100543.18;1693281;82;22496;-78
2023/09/20 09:37:58;;;;;;;5.92;3.22;;;;;;;31.19;24.23;100541.70;1692129;82;21319;-79
2023/09/20 09:41:03;;;;;;;7.35;3.20;;;;;;;30.97;24.33;100541.80;1681930;83;21717;-79
2023/09/20 09:44:10;;;;;;;4.22;2.98;;;;;;;30.87;23.82;100541.13;1681891;83;21247;-79
2023/09/20 09:47:17;;;;;;;7.08;2.92;;;;;;;30.87;24.42;100532.66;1686039;82;21368;-79
2023/09/20 09:50:23;;;;;;;6.75;3.30;;;;;;;30.79;25.25;100544.89;1662313;84;21692;-79
2023/09/20 09:53:30;;;;;;;9.80;3.37;;;;;;;31.01;25.34;100532.14;1652724;84;22738;-79
2023/09/20 09:56:37;;;;;;;8.00;2.85;;;;;;;31.20;24.68;100526.45;1688732;82;21358;-80
2023/09/20 09:59:44;;;;;;;5.85;3.12;;;;;;;31.32;25.10;100527.41;1680570;82;22649;-80
2023/09/20 10:02:51;;;;;;;7.33;3.12;;;;;;;31.18;25.12;100523.92;1683927;82;22681;-80
2023/09/20 10:05:59;;;;;;;8.08;3.40;;;;;;;31.23;24.91;100527.23;1684027;83;21925;-80
2023/09/20 10:09:05;;;;;;;7.35;3.75;;;;;;;31.38;24.94;100521.34;1676048;82;21365;-80
2023/09/20 10:12:15;;;;;;;5.42;3.22;;;;;;;31.47;24.37;100529.36;1685267;82;21708;-80
2023/09/20 10:15:21;;;;;;;8.58;3.60;;;;;;;31.42;24.27;100523.80;1687560;83;21375;-79
2023/09/20 10:18:28;;;;;;;9.10;3.42;;;;;;;31.44;24.62;100519.28;1683651;82;21303;-80
2023/09/20 10:21:36;;;;;;;11.45;2.92;;;;;;;31.62;24.39;100522.61;1689910;83;21389;-79
2023/09/20 10:25:01;;;;;;;6.15;3.60;;;;;;;31.80;24.40;100513.75;1685803;82;21628;-79
2023/09/20 10:28:17;;;;;;;8.20;3.12;;;;;;;31.47;24.05;100510.99;1676744;83;21353;-80
2023/09/20 10:31:24;;;;;;;7.62;3.00;;;;;;;31.27;23.71;100515.61;1686672;83;21354;-79
2023/09/20 10:34:32;;;;;;;6.20;3.00;;;;;;;31.40;23.27;100508.33;1686116;82;21233;-79
2023/09/20 10:37:44;;;;;;;5.83;3.22;;;;;;;31.42;24.10;100506.02;1681330;83;21433;-79
2023/09/20 10:41:00;;;;;;;4.25;2.85;;;;;;;31.48;23.42;100507.62;1685353;82;21291;-79
2023/09/20 10:44:06;;;;;;;8.03;2.47;;;;;;;31.43;23.38;100497.25;1654332;84;21338;-79
2023/09/20 10:47:19;;;;;;;4.78;3.00;;;;;;;31.52;23.87;100505.27;1654343;83;22018;-79
2023/09/20 10:50:57;;;;;;;3.40;2.65;;;;;;;31.65;23.90;100500.77;1670367;83;21334;-79
2023/09/20 12:01:53;;;;;;;6.97;3.58;;;;;;;31.80;22.60;100454.37;1685282;84;21833;-79
2023/09/20 12:04:59;;;;;;;12.80;3.80;;;;;;;31.78;22.50;100446.22;1681235;83;21370;-79
2023/09/20 12:08:07;;;;;;;9.13;3.22;;;;;;;31.71;22.35;100444.41;1659740;86;21358;-79
2023/09/20 12:11:12;;;;;;;13.88;3.55;;;;;;;31.82;22.02;100445.05;1679508;82;21976;-79
2023/09/20 12:14:17;;;;;;;6.37;3.35;;;;;;;31.64;22.29;100434.65;1687154;84;21699;-79
2023/09/20 12:17:24;;;;;;;10.70;3.70;;;;;;;31.73;22.50;100433.60;1689575;83;21345;-78
2023/09/20 12:20:31;;;;;;;6.42;3.17;;;;;;;31.81;22.56;100433.45;1659263;84;21400;-79
2023/09/20 12:23:42;;;;;;;6.50;3.55;;;;;;;31.83;22.66;100433.16;1708806;82;21916;-79
2023/09/20 12:26:46;;;;;;;6.85;4.03;;;;;;;31.93;22.40;100435.17;1721864;82;21937;-79
2023/09/20 12:29:52;;;;;;;6.97;4.17;;;;;;;31.81;22.01;100430.04;1710511;83;21377;-79
2023/09/20 12:32:59;;;;;;;10.80;3.80;;;;;;;32.03;22.11;100436.94;1721408;83;21377;-79
2023/09/20 12:36:11;;;;;;;5.90;3.35;;;;;;;31.81;22.17;100432.03;1698961;83;21988;-79
2023/09/20 12:39:13;;;;;;;7.42;3.77;;;;;;;31.64;22.34;100429.83;1691124;84;21365;-79
2023/09/20 12:42:20;;;;;;;13.90;3.27;;;;;;;31.51;22.53;100428.66;1686188;84;21376;-79
2023/09/20 12:45:26;;;;;;;6.53;3.00;;;;;;;31.46;22.55;100426.52;1685475;84;21366;-79
2023/09/20 12:48:32;;;;;;;7.35;3.70;;;;;;;31.49;22.35;100423.92;1686945;84;21885;-79
2023/09/20 12:51:39;;;;;;;8.35;4.12;;;;;;;31.28;22.46;100416.40;1687012;84;22029;-79
2023/09/20 12:54:44;;;;;;;6.30;4.00;;;;;;;31.41;22.53;100416.73;1685148;84;21339;-79
2023/09/20 12:57:51;;;;;;;10.23;3.85;;;;;;;31.43;22.24;100421.48;1690813;84;22078;-79
2023/09/20 13:00:57;;;;;;;7.80;3.60;;;;;;;31.49;22.46;100416.02;1691000;84;21353;-78
2023/09/20 13:04:02;;;;;;;12.07;4.15;;;;;;;31.61;22.32;100428.20;1691617;84;21431;-79
2023/09/20 13:07:10;;;;;;;8.05;4.03;;;;;;;31.47;22.26;100421.13;1691627;84;21908;-79
2023/09/20 13:10:17;;;;;;;8.15;3.72;;;;;;;31.34;22.16;100418.58;1686937;84;21912;-79
2023/09/20 13:13:23;;;;;;;9.90;4.25;;;;;;;31.43;22.12;100415.83;1688328;84;21338;-79
2023/09/20 13:16:29;;;;;;;9.68;5.03;;;;;;;31.67;21.76;100410.83;1691795;83;21341;-79
2023/09/20 13:19:35;;;;;;;16.20;5.17;;;;;;;31.68;22.24;100411.67;1680027;83;21366;-79
2023/09/20 13:22:45;;;;;;;9.13;5.22;;;;;;;31.62;22.23;100410.95;1692377;84;22153;-79
2023/09/20 13:25:52;;;;;;;9.00;4.70;;;;;;;31.79;21.81;100411.13;1689279;83;21337;-79
2023/09/20 13:28:57;;;;;;;13.28;4.28;;;;;;;31.71;21.88;100410.47;1693008;83;21326;-78
2023/09/20 13:32:03;;;;;;;6.40;4.35;;;;;;;31.75;21.80;100414.89;1691713;83;21322;-78
2023/09/20 13:35:19;;;;;;;6.50;4.30;;;;;;;31.94;21.58;100414.80;1688141;84;21272;-80
2023/09/20 13:38:23;;;;;;;9.33;3.58;;;;;;;31.59;21.53;100419.20;1692429;84;21358;-79
2023/09/20 13:41:29;;;;;;;8.30;3.17;;;;;;;31.53;21.64;100406.59;1691008;83;21374;-79
2023/09/20 13:44:36;;;;;;;6.28;3.35;;;;;;;31.51;21.96;100407.47;1692829;84;21247;-80
2023/09/20 13:47:43;;;;;;;5.37;3.52;;;;;;;31.15;21.83;100398.84;1687172;84;21649;-79
2023/09/20 13:50:49;;;;;;;7.08;4.03;;;;;;;31.03;22.23;100402.73;1687845;83;21370;-80
2023/09/20 13:53:56;;;;;;;11.70;4.42;;;;;;;31.15;22.21;100404.50;1688640;83;21670;-79
2023/09/20 13:57:03;;;;;;;12.23;5.45;;;;;;;31.21;22.23;100401.83;1685965;83;21653;-79
2023/09/20 14:00:14;;;;;;;11.83;4.85;;;;;;;31.08;22.36;100400.39;1690465;84;21929;-79
2023/09/20 14:03:19;;;;;;;11.95;4.70;;;;;;;31.21;22.12;100400.42;1690022;84;21370;-79
2023/09/20 14:06:25;;;;;;;11.20;4.62;;;;;;;31.23;22.08;100398.69;1689575;84;21369;-79
2023/09/20 14:09:31;;;;;;;16.10;4.40;;;;;;;31.21;22.16;100394.77;1688844;83;21377;-79
2023/09/20 14:12:38;;;;;;;11.68;4.58;;;;;;;31.23;21.87;100398.10;1689990;83;21907;-80
2023/09/20 14:15:45;;;;;;;10.08;5.35;;;;;;;31.18;22.26;100390.31;1690043;84;21971;-79
2023/09/20 14:18:50;;;;;;;12.18;5.47;;;;;;;31.00;22.06;100394.30;1686760;84;21335;-79
2023/09/20 14:21:55;;;;;;;16.62;6.00;;;;;;;30.98;22.05;100394.36;1689801;84;21346;-79
2023/09/20 14:25:02;;;;;;;10.50;5.10;;;;;;;30.69;22.26;100400.22;1689522;84;21392;-77
2023/09/20 14:28:08;;;;;;;12.35;4.12;;;;;;;31.03;21.90;100394.27;1688964;84;21390;-77
2023/09/20 14:31:22;;;;;;;5.65;3.60;;;;;;;30.95;22.00;100392.15;1688424;84;21744;-79
2023/09/20 14:34:28;;;;;;;7.25;3.87;;;;;;;30.93;22.02;100393.88;1685935;83;21330;-79
2023/09/20 14:37:33;;;;;;;8.75;3.67;;;;;;;30.72;22.19;100389.16;1688634;84;21354;-80
2023/09/20 14:40:39;;;;;;;4.67;3.60;;;;;;;30.72;22.19;100391.98;1649891;84;21402;-79
2023/09/20 14:43:44;;;;;;;5.47;3.80;;;;;;;30.61;22.41;100389.63;1687543;84;22120;-79
2023/09/20 14:46:50;;;;;;;8.43;3.85;;;;;;;30.64;22.40;100394.08;1689848;84;21675;-79
2023/09/20 14:49:55;;;;;;;9.45;3.52;;;;;;;30.55;22.39;100395.35;1683532;84;21676;-78
2023/09/20 14:53:03;;;;;;;6.85;4.00;;;;;;;30.45;22.45;100395.53;1690800;84;22362;-79
2023/09/20 14:56:11;;;;;;;13.98;4.33;;;;;;;30.43;22.61;100393.56;1688704;83;21326;-78
2023/09/20 14:59:17;;;;;;;12.40;4.50;;;;;;;30.49;22.62;100388.70;1689719;84;21937;-79
2023/09/20 15:02:22;;;;;;;17.75;4.30;;;;;;;30.33;22.81;100390.91;1690881;84;21898;-78
2023/09/20 15:05:29;;;;;;;17.50;4.15;;;;;;;30.32;22.87;100393.47;1691731;84;21338;-78
2023/09/20 15:08:35;;;;;;;8.95;3.77;;;;;;;30.22;22.94;100398.70;1690662;83;21349;-79
2023/09/20 15:11:41;;;;;;;7.15;4.00;;;;;;;30.29;23.02;100396.90;1690447;84;21397;-79
2023/09/20 15:14:48;;;;;;;10.78;4.28;;;;;;;29.83;23.69;100399.50;1687312;84;21342;-79
2023/09/20 15:17:53;;;;;;;8.28;4.55;;;;;;;29.99;23.77;100392.53;1688338;84;21401;-79
2023/09/20 15:21:03;;;;;;;10.90;4.60;;;;;;;29.74;24.06;100390.91;1687094;84;21350;-79
2023/09/20 15:24:08;;;;;;;10.80;4.10;;;;;;;29.64;24.28;100396.66;1689711;84;21340;-79
2023/09/20 15:27:14;;;;;;;8.05;4.08;;;;;;;29.48;24.56;100395.98;1691757;84;21402;-79
2023/09/20 15:30:29;;;;;;;8.78;4.58;;;;;;;29.35;24.73;100396.70;1691409;84;21346;-79
2023/09/20 15:33:34;;;;;;;12.43;4.40;;;;;;;29.27;24.91;100399.05;1688787;84;21361;-78
2023/09/20 15:36:40;;;;;;;9.38;5.35;;;;;;;29.14;25.17;100387.08;1688002;84;21932;-78
2023/09/20 15:39:45;;;;;;;8.43;4.60;;;;;;;29.14;25.17;100394.69;1687365;84;21948;-78
2023/09/20 15:42:55;;;;;;;9.50;4.90;;;;;;;29.06;25.44;100395.33;1682584;83;21339;-79
2023/09/20 15:45:59;;;;;;;10.15;4.87;;;;;;;28.90;25.67;100400.25;1683206;84;21310;-79
2023/09/20 15:49:06;;;;;;;9.68;5.10;;;;;;;28.75;25.91;100392.80;1681109;84;21350;-79
2023/09/20 15:52:14;;;;;;;10.05;5.40;;;;;;;28.59;26.11;100397.70;1676934;85;21323;-80
2023/09/20 15:55:22;;;;;;;13.78;5.75;;;;;;;28.35;26.39;100405.20;1691517;83;21374;-80
